Time;durP1;ratioP1;P1;durP2;ratioP2;P2;SDS_P1;SDS_P2;PMS_P1;PMS_P2;Temp;Humidity;BMP_temperature;BMP_pressure;BME280_temperature;BME280_humidity;BME280_pressure;Samples;Min_cycle;Max_cycle;Signal;HPM_P1;HPM_P2
2022/03/08 00:00:57;;;;;;;;;;;77.60;2227.20;;;;;;5054258;28;19905;-86
2022/03/08 00:03:23;;;;;;;;;;;102.50;2227.20;;;;;;5053029;28;19905;-83
2022/03/08 00:05:49;;;;;;;;;;;102.70;2227.20;;;;;;5053054;28;19921;-85
2022/03/08 00:08:14;;;;;;;;;;;102.50;2227.20;;;;;;5053011;28;19909;-81
2022/03/08 00:10:40;;;;;;;;;;;102.60;2227.20;;;;;;5053282;28;20247;-86
2022/03/08 00:13:05;;;;;;;;;;;102.70;2227.20;;;;;;5055163;28;20014;-82
2022/03/08 00:15:31;;;;;;;;;;;102.50;2227.20;;;;;;5056436;28;19954;-81
2022/03/08 00:17:57;;;;;;;;;;;102.70;2227.20;;;;;;5057063;28;20346;-86
2022/03/08 00:20:23;;;;;;;;;;;102.80;2227.20;;;;;;5057030;28;19909;-84
2022/03/08 00:22:48;;;;;;;;;;;102.50;2227.20;;;;;;5057179;28;19905;-82
2022/03/08 00:25:15;;;;;;;;;;;102.70;2227.20;;;;;;5057784;28;19904;-83
2022/03/08 00:27:49;;;;;;;;;;;102.80;2227.20;;;;;;5056672;28;19905;-83
2022/03/08 00:30:16;;;;;;;;;;;102.80;2227.20;;;;;;5058100;28;20353;-85
2022/03/08 00:32:43;;;;;;;;;;;102.90;2227.20;;;;;;5056671;28;19950;-85
2022/03/08 00:35:09;;;;;;;;;;;102.90;2227.20;;;;;;5057877;28;19916;-83
2022/03/08 00:37:35;;;;;;;;;;;102.90;2227.20;;;;;;5058035;28;19905;-85
2022/03/08 00:40:01;;;;;;;;;;;102.90;2227.20;;;;;;5057916;28;19909;-81
2022/03/08 00:42:27;;;;;;;;;;;102.80;2227.20;;;;;;5056623;28;19913;-79
2022/03/08 00:44:52;;;;;;;;;;;102.60;2227.20;;;;;;5056740;28;19943;-85
2022/03/08 00:47:18;;;;;;;;;;;102.70;2227.20;;;;;;5056757;28;19904;-85
2022/03/08 00:49:44;;;;;;;;;;;102.70;2227.20;;;;;;5056253;28;19912;-83
2022/03/08 00:52:10;;;;;;;;;;;102.80;2227.20;;;;;;5057565;28;20014;-86
2022/03/08 00:54:36;;;;;;;;;;;102.80;2227.20;;;;;;5056744;28;20380;-83
2022/03/08 00:57:01;;;;;;;;;;;102.90;2227.20;;;;;;5055680;28;19999;-79
2022/03/08 00:59:27;;;;;;;;;;;102.80;2227.20;;;;;;5056417;28;19909;-86
2022/03/08 01:01:53;;;;;;;;;;;102.80;2227.20;;;;;;5055939;28;20265;-84
2022/03/08 01:04:18;;;;;;;;;;;102.80;2227.20;;;;;;5056138;28;20058;-81
2022/03/08 01:06:44;;;;;;;;;;;102.80;2227.20;;;;;;5057117;28;19913;-79
2022/03/08 01:09:10;;;;;;;;;;;102.90;2227.20;;;;;;5056161;28;20401;-80
2022/03/08 01:11:39;;;;;;;;;;;102.60;2227.20;;;;;;5056359;28;19923;-79
2022/03/08 01:14:08;;;;;;;;;;;102.70;2227.20;;;;;;5056485;28;19917;-83
2022/03/08 01:16:35;;;;;;;;;;;102.70;2227.20;;;;;;5055788;28;20042;-79
2022/03/08 01:19:00;;;;;;;;;;;102.50;2227.20;;;;;;5055656;28;19904;-81
2022/03/08 01:21:26;;;;;;;;;;;102.50;2227.20;;;;;;5055393;28;19911;-79
2022/03/08 01:23:52;;;;;;;;;;;102.70;2227.20;;;;;;5055836;28;19905;-80
2022/03/08 01:26:17;;;;;;;;;;;102.80;2227.20;;;;;;5057174;28;19959;-81
2022/03/08 01:28:43;;;;;;;;;;;102.80;2227.20;;;;;;5055551;28;20333;-84
2022/03/08 01:31:09;;;;;;;;;;;102.70;2227.20;;;;;;5057153;28;19905;-83
2022/03/08 01:33:35;;;;;;;;;;;102.70;2227.20;;;;;;5055709;28;19959;-80
2022/03/08 01:36:00;;;;;;;;;;;102.70;2227.20;;;;;;5055718;28;20352;-80
2022/03/08 01:38:26;;;;;;;;;;;102.70;2227.20;;;;;;5055721;28;19904;-80
2022/03/08 01:40:52;;;;;;;;;;;102.80;2227.20;;;;;;5055047;28;19959;-84
2022/03/08 01:43:17;;;;;;;;;;;102.70;2227.20;;;;;;5056542;28;19931;-82
2022/03/08 01:45:43;;;;;;;;;;;102.70;2227.20;;;;;;5054953;28;19912;-84
2022/03/08 01:48:09;;;;;;;;;;;102.80;2227.20;;;;;;5055359;28;19912;-81
2022/03/08 01:50:35;;;;;;;;;;;102.70;2227.20;;;;;;5056404;28;19905;-84
2022/03/08 01:53:00;;;;;;;;;;;102.60;2227.20;;;;;;5056361;28;19912;-83
2022/03/08 01:55:26;;;;;;;;;;;102.60;2227.20;;;;;;5055562;28;20369;-79
2022/03/08 01:57:52;;;;;;;;;;;77.70;2227.20;;;;;;5055390;28;19927;-80
2022/03/08 02:00:20;;;;;;;;;;;102.50;2227.20;;;;;;5055352;28;20437;-85
2022/03/08 02:02:46;;;;;;;;;;;102.50;2227.20;;;;;;5055481;28;19904;-85
2022/03/08 02:05:12;;;;;;;;;;;102.50;2227.20;;;;;;5056242;28;20447;-79
2022/03/08 02:07:37;;;;;;;;;;;102.50;2227.20;;;;;;5056398;28;19911;-81
2022/03/08 02:10:04;;;;;;;;;;;102.40;2227.20;;;;;;5054399;28;19911;-84
2022/03/08 02:12:29;;;;;;;;;;;102.50;2227.20;;;;;;5054817;28;20411;-85
2022/03/08 02:14:56;;;;;;;;;;;102.40;2227.20;;;;;;5056251;28;19921;-82
2022/03/08 02:17:22;;;;;;;;;;;102.50;2227.20;;;;;;5055583;28;19911;-84
2022/03/08 02:19:47;;;;;;;;;;;102.40;2227.20;;;;;;5054540;28;20602;-85
2022/03/08 02:22:13;;;;;;;;;;;102.40;2227.20;;;;;;5055899;28;20281;-80
2022/03/08 02:24:39;;;;;;;;;;;102.40;2227.20;;;;;;5055675;28;19904;-85
2022/03/08 02:27:05;;;;;;;;;;;102.50;2227.20;;;;;;5054813;28;19905;-81
2022/03/08 02:29:31;;;;;;;;;;;102.50;2227.20;;;;;;5054533;28;19905;-86
2022/03/08 02:31:56;;;;;;;;;;;102.60;2227.20;;;;;;5055852;28;20401;-85
2022/03/08 02:34:22;;;;;;;;;;;102.50;2227.20;;;;;;5054443;28;19913;-85
2022/03/08 02:36:57;;;;;;;;;;;77.60;2227.20;;;;;;5053911;28;20034;-79
2022/03/08 02:39:23;;;;;;;;;;;77.60;2227.20;;;;;;5054156;28;19909;-80
2022/03/08 02:41:48;;;;;;;;;;;77.70;2227.20;;;;;;5054325;28;20400;-83
2022/03/08 02:44:14;;;;;;;;;;;77.70;2227.20;;;;;;5055399;28;19944;-79
2022/03/08 02:46:40;;;;;;;;;;;77.60;2227.20;;;;;;5055746;28;19955;-79
2022/03/08 02:49:05;;;;;;;;;;;77.40;2227.20;;;;;;5055527;28;19905;-81
2022/03/08 02:51:31;;;;;;;;;;;77.50;2227.20;;;;;;5055420;28;20353;-85
2022/03/08 02:53:56;;;;;;;;;;;77.60;2227.20;;;;;;5054275;28;19912;-81
2022/03/08 02:56:22;;;;;;;;;;;77.60;2227.20;;;;;;5054193;28;19959;-81
2022/03/08 02:58:47;;;;;;;;;;;77.60;2227.20;;;;;;5055485;28;19905;-81
2022/03/08 03:01:13;;;;;;;;;;;77.50;2227.20;;;;;;5054323;28;19912;-83
2022/03/08 03:03:39;;;;;;;;;;;77.50;2227.20;;;;;;5054137;28;20004;-83
2022/03/08 03:06:04;;;;;;;;;;;77.50;2227.20;;;;;;5054004;28;20354;-85
2022/03/08 03:08:30;;;;;;;;;;;77.50;2227.20;;;;;;5053421;28;19939;-79
2022/03/08 03:10:55;;;;;;;;;;;77.30;2227.20;;;;;;5055078;28;19971;-81
2022/03/08 03:13:21;;;;;;;;;;;77.30;2227.20;;;;;;5054310;28;20362;-85
2022/03/08 03:15:46;;;;;;;;;;;77.40;2227.20;;;;;;5053387;28;19912;-83
2022/03/08 03:18:12;;;;;;;;;;;77.50;2227.20;;;;;;5053433;28;19999;-85
2022/03/08 03:20:38;;;;;;;;;;;77.60;2227.20;;;;;;5053638;28;19942;-86
2022/03/08 03:23:03;;;;;;;;;;;77.60;2227.20;;;;;;5053615;28;19905;-79
2022/03/08 03:25:29;;;;;;;;;;;77.50;2227.20;;;;;;5053620;28;19963;-82
2022/03/08 03:27:55;;;;;;;;;;;77.40;2227.20;;;;;;5053922;28;19958;-86
2022/03/08 03:30:20;;;;;;;;;;;77.50;2227.20;;;;;;5053662;28;19999;-82
2022/03/08 03:32:46;;;;;;;;;;;77.40;2227.20;;;;;;5053030;28;19912;-79
2022/03/08 03:35:12;;;;;;;;;;;77.50;2227.20;;;;;;5054722;28;19919;-82
2022/03/08 03:37:39;;;;;;;;;;;77.40;2227.20;;;;;;5053160;28;19905;-85
2022/03/08 03:40:05;;;;;;;;;;;77.50;2227.20;;;;;;5054492;28;19905;-80
2022/03/08 03:42:31;;;;;;;;;;;77.50;2227.20;;;;;;5054281;28;19947;-82
2022/03/08 03:44:56;;;;;;;;;;;77.50;2227.20;;;;;;5054506;28;19917;-82
2022/03/08 03:47:22;;;;;;;;;;;77.50;2227.20;;;;;;5052098;28;19911;-82
2022/03/08 03:49:47;;;;;;;;;;;77.50;2227.20;;;;;;5053536;28;20271;-79
2022/03/08 03:52:13;;;;;;;;;;;77.60;2227.20;;;;;;5053185;28;19991;-85
2022/03/08 03:54:38;;;;;;;;;;;77.60;2227.20;;;;;;5053297;28;19919;-85
2022/03/08 03:57:04;;;;;;;;;;;77.60;2227.20;;;;;;5053081;28;19904;-79
2022/03/08 03:59:30;;;;;;;;;;;77.40;2227.20;;;;;;5053720;28;19911;-85
2022/03/08 04:01:55;;;;;;;;;;;77.50;2227.20;;;;;;5053388;28;20007;-85
2022/03/08 04:04:21;;;;;;;;;;;77.50;2227.20;;;;;;5052892;28;19927;-85
2022/03/08 04:06:46;;;;;;;;;;;77.40;2227.20;;;;;;5053167;28;19908;-81
2022/03/08 04:09:13;;;;;;;;;;;77.60;2227.20;;;;;;5054274;28;19950;-82
2022/03/08 04:11:38;;;;;;;;;;;77.60;2227.20;;;;;;5053032;28;19912;-79
2022/03/08 04:14:04;;;;;;;;;;;77.70;2227.20;;;;;;5053115;28;19916;-81
2022/03/08 04:16:30;;;;;;;;;;;77.60;2227.20;;;;;;5052713;28;19909;-79
2022/03/08 04:18:55;;;;;;;;;;;77.50;2227.20;;;;;;5053026;28;19912;-84
2022/03/08 04:21:21;;;;;;;;;;;77.20;2227.20;;;;;;5053171;28;19909;-85
2022/03/08 04:23:47;;;;;;;;;;;77.10;2227.20;;;;;;5052734;28;20366;-81
2022/03/08 04:26:12;;;;;;;;;;;77.40;2227.20;;;;;;5053037;28;19944;-80
2022/03/08 04:28:38;;;;;;;;;;;77.40;2227.20;;;;;;5053382;28;19916;-86
2022/03/08 04:31:04;;;;;;;;;;;77.40;2227.20;;;;;;5053210;28;19951;-79
2022/03/08 04:33:29;;;;;;;;;;;77.20;2227.20;;;;;;5053126;28;19909;-79
2022/03/08 04:35:55;;;;;;;;;;;77.40;2227.20;;;;;;5053186;28;19905;-86
2022/03/08 04:38:20;;;;;;;;;;;77.40;2227.20;;;;;;5053227;28;19904;-84
2022/03/08 04:40:46;;;;;;;;;;;77.40;2227.20;;;;;;5052859;28;19912;-79
2022/03/08 04:43:12;;;;;;;;;;;77.50;2227.20;;;;;;5053053;28;19909;-80
2022/03/08 04:45:37;;;;;;;;;;;77.60;2227.20;;;;;;5052907;28;19939;-86
2022/03/08 04:48:03;;;;;;;;;;;77.50;2227.20;;;;;;5052930;28;19911;-84
2022/03/08 04:50:28;;;;;;;;;;;77.60;2227.20;;;;;;5052758;28;20002;-85
2022/03/08 04:52:54;;;;;;;;;;;77.60;2227.20;;;;;;5052478;28;19912;-86
2022/03/08 04:55:20;;;;;;;;;;;77.60;2227.20;;;;;;5052667;28;19909;-84
2022/03/08 04:57:46;;;;;;;;;;;77.70;2227.20;;;;;;5053041;28;19911;-82
2022/03/08 05:00:12;;;;;;;;;;;77.70;2227.20;;;;;;5056310;28;20038;-85
2022/03/08 05:02:41;;;;;;;;;;;77.70;2227.20;;;;;;5056550;28;19905;-85
2022/03/08 05:05:08;;;;;;;;;;;77.60;2227.20;;;;;;5057314;28;19995;-79
2022/03/08 05:07:37;;;;;;;;;;;77.60;2227.20;;;;;;5055928;28;19905;-84
2022/03/08 05:10:07;;;;;;;;;;;77.60;2227.20;;;;;;5056166;28;19904;-85
2022/03/08 05:12:33;;;;;;;;;;;77.60;2227.20;;;;;;5055472;28;19908;-85
2022/03/08 05:14:59;;;;;;;;;;;77.50;2227.20;;;;;;5055582;28;19917;-84
2022/03/08 05:17:25;;;;;;;;;;;77.70;2227.20;;;;;;5057335;28;19905;-85
2022/03/08 05:19:51;;;;;;;;;;;77.20;2227.20;;;;;;5054983;28;19908;-79
2022/03/08 05:22:16;;;;;;;;;;;76.90;2227.20;;;;;;5055861;28;19954;-84
2022/03/08 05:24:42;;;;;;;;;;;76.80;2227.20;;;;;;5055723;28;19905;-79
2022/03/08 05:27:08;;;;;;;;;;;52.00;2227.20;;;;;;5055608;28;19998;-84
2022/03/08 05:29:34;;;;;;;;;;;51.80;2227.20;;;;;;5055637;28;19905;-80
2022/03/08 05:31:59;;;;;;;;;;;51.70;2227.20;;;;;;5056071;28;19989;-81
2022/03/08 05:34:25;;;;;;;;;;;51.60;2227.20;;;;;;5056646;28;20435;-85
2022/03/08 05:36:50;;;;;;;;;;;51.40;2227.20;;;;;;5055843;28;19904;-82
2022/03/08 05:39:16;;;;;;;;;;;51.40;2227.20;;;;;;5055761;28;19905;-85
2022/03/08 05:41:42;;;;;;;;;;;51.30;2227.20;;;;;;5055278;28;20003;-86
2022/03/08 05:44:07;;;;;;;;;;;51.30;2227.20;;;;;;5055617;28;19916;-86
2022/03/08 05:46:33;;;;;;;;;;;51.50;2227.20;;;;;;5055704;28;20392;-80
2022/03/08 05:48:58;;;;;;;;;;;51.40;2227.20;;;;;;5056572;28;19905;-86
2022/03/08 05:51:24;;;;;;;;;;;51.40;2227.20;;;;;;5055471;28;19905;-79
2022/03/08 05:53:49;;;;;;;;;;;51.60;2227.20;;;;;;5054754;28;19913;-81
2022/03/08 05:56:15;;;;;;;;;;;51.60;2227.20;;;;;;5056668;28;20277;-79
2022/03/08 05:58:41;;;;;;;;;;;51.50;2227.20;;;;;;5055279;28;19916;-84
2022/03/08 06:01:06;;;;;;;;;;;51.50;2227.20;;;;;;5055407;28;19904;-83
2022/03/08 06:03:32;;;;;;;;;;;51.50;2227.20;;;;;;5054269;28;19905;-87
2022/03/08 06:05:58;;;;;;;;;;;51.60;2227.20;;;;;;5055016;28;19916;-86
2022/03/08 06:08:23;;;;;;;;;;;51.70;2227.20;;;;;;5056279;28;19916;-77
2022/03/08 06:10:49;;;;;;;;;;;51.70;2227.20;;;;;;5054166;28;19905;-86
2022/03/08 06:13:14;;;;;;;;;;;51.60;2227.20;;;;;;5055115;28;20014;-82
2022/03/08 06:15:40;;;;;;;;;;;51.70;2227.20;;;;;;5055248;28;19958;-86
2022/03/08 06:18:05;;;;;;;;;;;51.70;2227.20;;;;;;5054645;28;19909;-84
2022/03/08 06:20:31;;;;;;;;;;;51.80;2227.20;;;;;;5054989;28;19908;-86
2022/03/08 06:22:56;;;;;;;;;;;51.90;2227.20;;;;;;5054675;28;19905;-83
2022/03/08 06:25:22;;;;;;;;;;;52.00;2227.20;;;;;;5054970;28;19994;-80
2022/03/08 06:27:48;;;;;;;;;;;52.00;2227.20;;;;;;5054606;28;20355;-87
2022/03/08 06:30:14;;;;;;;;;;;52.00;2227.20;;;;;;5055904;28;19947;-79
2022/03/08 06:32:39;;;;;;;;;;;52.00;2227.20;;;;;;5054655;28;19908;-79
2022/03/08 06:35:05;;;;;;;;;;;76.80;2227.20;;;;;;5054047;28;19912;-82
2022/03/08 06:37:31;;;;;;;;;;;52.00;2227.20;;;;;;5054443;28;20377;-89
2022/03/08 06:39:56;;;;;;;;;;;52.00;2227.20;;;;;;5055346;28;20354;-79
2022/03/08 06:42:22;;;;;;;;;;;76.90;2227.20;;;;;;5054109;28;19905;-79
2022/03/08 06:44:47;;;;;;;;;;;77.00;2227.20;;;;;;5051114;28;20396;-86
2022/03/08 06:47:13;;;;;;;;;;;77.00;2227.20;;;;;;5045428;28;19905;-79
2022/03/08 06:49:39;;;;;;;;;;;76.90;2227.20;;;;;;5043849;28;19904;-83
2022/03/08 06:52:06;;;;;;;;;;;76.90;2227.20;;;;;;5042003;28;19905;-80
2022/03/08 06:54:31;;;;;;;;;;;77.20;2227.20;;;;;;5041141;28;19923;-80
2022/03/08 06:56:57;;;;;;;;;;;77.30;2227.20;;;;;;5046016;28;20363;-81
2022/03/08 06:59:23;;;;;;;;;;;77.40;2227.20;;;;;;5042649;28;19913;-82
2022/03/08 07:01:49;;;;;;;;;;;102.40;2227.20;;;;;;5043690;28;19905;-82
2022/03/08 07:04:14;;;;;;;;;;;77.30;2227.20;;;;;;5043461;28;19982;-85
2022/03/08 07:06:40;;;;;;;;;;;77.20;2227.20;;;;;;5043353;28;19905;-83
2022/03/08 07:09:06;;;;;;;;;;;77.50;2227.20;;;;;;5043926;28;19905;-84
2022/03/08 07:11:31;;;;;;;;;;;77.60;2227.20;;;;;;5044269;28;19912;-78
2022/03/08 07:13:57;;;;;;;;;;;77.60;2227.20;;;;;;5045513;28;19981;-85
2022/03/08 07:16:23;;;;;;;;;;;77.70;2227.20;;;;;;5042976;28;19905;-92
2022/03/08 07:18:49;;;;;;;;;;;77.70;2227.20;;;;;;5038733;28;19995;-85
2022/03/08 07:21:14;;;;;;;;;;;102.40;2227.20;;;;;;5035867;28;20274;-79
2022/03/08 07:23:40;;;;;;;;;;;102.50;2227.20;;;;;;5041378;28;19915;-78
2022/03/08 07:26:05;;;;;;;;;;;102.60;2227.20;;;;;;5042627;28;19905;-79
2022/03/08 07:28:31;;;;;;;;;;;102.80;2227.20;;;;;;5044747;28;19916;-79
2022/03/08 07:30:57;;;;;;;;;;;103.00;2227.20;;;;;;5044869;28;19955;-77
2022/03/08 07:33:23;;;;;;;;;;;102.90;2227.20;;;;;;5043851;28;19909;-77
2022/03/08 07:35:48;;;;;;;;;;;103.20;2227.20;;;;;;5045109;28;19916;-80
2022/03/08 07:38:15;;;;;;;;;;;128.00;2252.80;;;;;;5042836;28;19905;-80
2022/03/08 07:40:41;;;;;;;;;;;128.30;2252.80;;;;;;5042526;28;19905;-81
2022/03/08 07:43:07;;;;;;;;;;;128.40;2252.80;;;;;;5042647;28;19916;-83
2022/03/08 07:45:33;;;;;;;;;;;128.70;2252.80;;;;;;5040663;28;19951;-78
2022/03/08 07:47:58;;;;;;;;;;;128.90;2252.80;;;;;;5043665;28;19905;-80
2022/03/08 07:50:25;;;;;;;;;;;153.70;2252.80;;;;;;5043239;28;19905;-84
2022/03/08 07:52:51;;;;;;;;;;;128.70;2252.80;;;;;;5043923;28;20022;-78
2022/03/08 07:55:18;;;;;;;;;;;128.70;2227.20;;;;;;5038165;28;20481;-78
2022/03/08 07:57:43;;;;;;;;;;;128.90;2252.80;;;;;;5033458;28;19908;-80
2022/03/08 08:00:09;;;;;;;;;;;128.80;2201.60;;;;;;5033203;28;19984;-80
2022/03/08 08:02:35;;;;;;;;;;;128.60;2252.80;;;;;;5032503;28;20327;-81
2022/03/08 08:05:01;;;;;;;;;;;128.40;2252.80;;;;;;5044299;28;19920;-79
2022/03/08 08:07:26;;;;;;;;;;;128.60;2252.80;;;;;;5046347;28;19909;-81
2022/03/08 08:09:52;;;;;;;;;;;128.70;2252.80;;;;;;5041550;28;20043;-80
2022/03/08 08:12:18;;;;;;;;;;;128.90;2252.80;;;;;;5041401;28;20358;-78
2022/03/08 08:14:43;;;;;;;;;;;128.80;2201.60;;;;;;5044120;28;19920;-80
2022/03/08 08:17:09;;;;;;;;;;;128.70;2227.20;;;;;;5044937;28;19905;-77
2022/03/08 08:19:34;;;;;;;;;;;128.70;2227.20;;;;;;5042706;28;20000;-78
2022/03/08 08:22:00;;;;;;;;;;;128.80;2227.20;;;;;;5040451;28;19905;-78
2022/03/08 08:24:25;;;;;;;;;;;153.70;2227.20;;;;;;5033773;28;20000;-78
2022/03/08 08:26:51;;;;;;;;;;;153.80;2150.40;;;;;;5032485;28;19909;-77
2022/03/08 08:29:17;;;;;;;;;;;153.60;2150.40;;;;;;5032349;28;19936;-76
2022/03/08 08:31:42;;;;;;;;;;;128.80;2150.40;;;;;;5033720;28;19905;-78
2022/03/08 08:34:08;;;;;;;;;;;128.80;2176.00;;;;;;5034532;28;20338;-79
2022/03/08 08:36:34;;;;;;;;;;;153.60;2176.00;;;;;;5035752;28;19975;-76
2022/03/08 08:38:59;;;;;;;;;;;153.80;2201.60;;;;;;5037353;28;19905;-76
2022/03/08 08:41:25;;;;;;;;;;;154.00;2150.40;;;;;;5047446;28;19961;-77
2022/03/08 08:43:51;;;;;;;;;;;154.00;2124.80;;;;;;5051751;28;20028;-77
2022/03/08 08:46:16;;;;;;;;;;;154.00;2099.20;;;;;;5048310;28;19913;-82
2022/03/08 08:48:42;;;;;;;;;;;154.10;2022.40;;;;;;5046592;28;19905;-78
2022/03/08 08:51:08;;;;;;;;;;;154.20;2073.60;;;;;;5039599;28;20000;-77
2022/03/08 08:53:33;;;;;;;;;;;154.10;2048.00;;;;;;5034649;28;19916;-78
2022/03/08 08:55:59;;;;;;;;;;;154.40;2048.00;;;;;;5043074;28;19962;-77
2022/03/08 08:58:24;;;;;;;;;;;154.40;2022.40;;;;;;5043841;28;19916;-76
2022/03/08 09:00:50;;;;;;;;;;;154.50;1996.80;;;;;;5045919;28;19904;-78
2022/03/08 09:03:16;;;;;;;;;;;154.50;1945.60;;;;;;5043322;28;19904;-78
2022/03/08 09:05:42;;;;;;;;;;;154.40;1920.00;;;;;;5043144;28;19921;-78
2022/03/08 09:08:08;;;;;;;;;;;179.20;1894.40;;;;;;5039450;28;20372;-79
2022/03/08 09:10:33;;;;;;;;;;;179.40;1894.40;;;;;;5054366;28;20003;-78
2022/03/08 09:12:59;;;;;;;;;;;179.40;1868.80;;;;;;5056161;28;20285;-79
2022/03/08 09:15:25;;;;;;;;;;;179.40;1843.20;;;;;;5053859;28;19975;-76
2022/03/08 09:17:50;;;;;;;;;;;179.40;1817.60;;;;;;5044913;28;19958;-78
2022/03/08 09:20:16;;;;;;;;;;;179.60;1817.60;;;;;;5044036;28;19912;-78
2022/03/08 09:22:42;;;;;;;;;;;179.40;1792.00;;;;;;5046443;28;19911;-78
2022/03/08 09:25:08;;;;;;;;;;;179.40;1792.00;;;;;;5048940;28;19909;-77
2022/03/08 09:27:36;;;;;;;;;;;179.70;1792.00;;;;;;5045927;28;19905;-77
2022/03/08 09:30:05;;;;;;;;;;;179.70;1766.40;;;;;;5045839;28;20515;-79
2022/03/08 09:32:31;;;;;;;;;;;179.90;1740.80;;;;;;5045879;28;19909;-79
2022/03/08 09:34:56;;;;;;;;;;;179.90;1740.80;;;;;;5044364;28;20005;-80
2022/03/08 09:37:22;;;;;;;;;;;179.90;1740.80;;;;;;5043736;28;19905;-77
2022/03/08 09:39:47;;;;;;;;;;;179.90;1740.80;;;;;;5042533;28;19927;-77
2022/03/08 09:42:13;;;;;;;;;;;180.00;1740.80;;;;;;5043914;28;19962;-78
2022/03/08 09:44:39;;;;;;;;;;;180.00;1715.20;;;;;;5042718;28;19952;-77
2022/03/08 09:47:05;;;;;;;;;;;204.90;1715.20;;;;;;5045052;28;19911;-78
2022/03/08 09:49:31;;;;;;;;;;;205.20;1715.20;;;;;;5048451;28;19935;-80
2022/03/08 09:51:57;;;;;;;;;;;205.30;1715.20;;;;;;5055361;28;20307;-81
2022/03/08 09:54:23;;;;;;;;;;;205.00;1638.40;;;;;;5045820;28;19921;-77
2022/03/08 09:56:48;;;;;;;;;;;205.10;1664.00;;;;;;5046880;28;20003;-81
2022/03/08 09:59:15;;;;;;;;;;;205.20;1638.40;;;;;;5047566;28;19904;-80
2022/03/08 10:01:41;;;;;;;;;;;205.10;1612.80;;;;;;5056060;28;19904;-78
2022/03/08 10:04:07;;;;;;;;;;;205.10;1612.80;;;;;;5055663;28;19991;-79
2022/03/08 10:06:40;;;;;;;;;;;205.30;1638.40;;;;;;5056026;28;19911;-78
2022/03/08 10:09:10;;;;;;;;;;;205.40;1664.00;;;;;;5055769;28;19905;-78
2022/03/08 10:11:39;;;;;;;;;;;204.80;1638.40;;;;;;5054476;28;19909;-78
2022/03/08 10:14:04;;;;;;;;;;;204.90;1638.40;;;;;;5054259;28;19917;-78
2022/03/08 10:16:41;;;;;;;;;;;205.10;1638.40;;;;;;5055650;28;19905;-78
2022/03/08 10:19:08;;;;;;;;;;;205.00;1664.00;;;;;;5054574;28;19912;-78
2022/03/08 10:21:35;;;;;;;;;;;205.00;1664.00;;;;;;5055526;28;20376;-79
2022/03/08 10:24:05;;;;;;;;;;;205.00;1638.40;;;;;;5055760;28;19904;-78
2022/03/08 10:26:41;;;;;;;;;;;205.10;1638.40;;;;;;5054404;28;19951;-77
2022/03/08 10:29:07;;;;;;;;;;;205.20;1638.40;;;;;;5044134;28;19905;-77
2022/03/08 10:31:32;;;;;;;;;;;205.50;1638.40;;;;;;5042606;28;19905;-79
2022/03/08 10:34:03;;;;;;;;;;;205.10;1612.80;;;;;;5044928;28;19920;-77
2022/03/08 10:36:29;;;;;;;;;;;205.20;1587.20;;;;;;5046998;28;19909;-77
2022/03/08 10:39:09;;;;;;;;;;;205.40;1587.20;;;;;;5041427;28;19981;-78
2022/03/08 10:41:39;;;;;;;;;;;205.40;1561.60;;;;;;5044663;28;20388;-79
2022/03/08 10:44:05;;;;;;;;;;;205.50;1561.60;;;;;;5041025;28;19908;-78
2022/03/08 10:46:30;;;;;;;;;;;205.70;1587.20;;;;;;5044029;28;20353;-79
2022/03/08 10:48:56;;;;;;;;;;;230.70;1561.60;;;;;;5044997;28;19905;-78
2022/03/08 10:51:22;;;;;;;;;;;231.00;1510.40;;;;;;5042510;28;19909;-78
2022/03/08 10:53:48;;;;;;;;;;;230.90;1484.80;;;;;;5046359;28;19913;-78
2022/03/08 10:56:19;;;;;;;;;;;230.80;1459.20;;;;;;5044598;28;19931;-77
2022/03/08 10:58:51;;;;;;;;;;;230.70;1484.80;;;;;;5041163;28;20396;-77
2022/03/08 11:01:17;;;;;;;;;;;230.60;1484.80;;;;;;5033627;28;19999;-78
2022/03/08 11:04:01;;;;;;;;;;;230.90;1510.40;;;;;;5033384;28;20334;-77
2022/03/08 11:06:27;;;;;;;;;;;230.90;1484.80;;;;;;5033727;28;19978;-77
2022/03/08 11:08:53;;;;;;;;;;;231.00;1484.80;;;;;;5034775;28;20355;-78
2022/03/08 11:11:19;;;;;;;;;;;256.00;1484.80;;;;;;5032773;28;19957;-79
2022/03/08 11:13:47;;;;;;;;;;;256.40;1459.20;;;;;;5033599;28;19928;-79
2022/03/08 11:16:14;;;;;;;;;;;256.50;1408.00;;;;;;5033537;28;19959;-78
2022/03/08 11:18:44;;;;;;;;;;;256.90;1408.00;;;;;;5038771;28;19919;-79
2022/03/08 11:21:10;;;;;;;;;;;256.40;1408.00;;;;;;5036216;28;19909;-80
2022/03/08 11:23:35;;;;;;;;;;;256.10;1433.60;;;;;;5033332;28;19988;-80
2022/03/08 11:26:01;;;;;;;;;;;256.00;1408.00;;;;;;5037891;28;19908;-79
2022/03/08 11:28:27;;;;;;;;;;;231.20;1382.40;;;;;;5047169;28;19915;-79
2022/03/08 11:30:55;;;;;;;;;;;231.30;1356.80;;;;;;5042278;28;19928;-78
2022/03/08 11:33:39;;;;;;;;;;;231.20;1382.40;;;;;;5041253;28;19905;-80
2022/03/08 11:36:15;;;;;;;;;;;256.50;1331.20;;;;;;5043329;28;19960;-80
2022/03/08 11:38:41;;;;;;;;;;;256.60;1305.60;;;;;;5042759;28;19905;-79
2022/03/08 11:41:06;;;;;;;;;;;256.80;1305.60;;;;;;5041718;28;19923;-80
2022/03/08 11:43:39;;;;;;;;;;;256.90;1305.60;;;;;;5041915;28;19916;-78
2022/03/08 11:46:11;;;;;;;;;;;282.10;1305.60;;;;;;5044308;28;20334;-79
2022/03/08 11:48:48;;;;;;;;;;;282.30;1254.40;;;;;;5041741;28;20365;-79
2022/03/08 11:51:14;;;;;;;;;;;282.50;1254.40;;;;;;5044904;28;19912;-79
2022/03/08 11:53:44;;;;;;;;;;;282.30;1228.80;;;;;;5052449;28;20415;-79
2022/03/08 11:56:20;;;;;;;;;;;282.50;1228.80;;;;;;5045513;28;19959;-80
2022/03/08 11:58:50;;;;;;;;;;;282.00;1228.80;;;;;;5042222;28;20006;-79
2022/03/08 12:01:23;;;;;;;;;;;281.90;1203.20;;;;;;5036758;28;19905;-83
2022/03/08 12:03:57;;;;;;;;;;;281.60;1228.80;;;;;;5033258;28;19944;-81
2022/03/08 12:06:30;;;;;;;;;;;256.70;1203.20;;;;;;5033247;28;19975;-80
2022/03/08 12:09:07;;;;;;;;;;;256.90;1203.20;;;;;;5035720;28;19905;-80
2022/03/08 12:11:35;;;;;;;;;;;256.60;1203.20;;;;;;5036967;28;20282;-79
2022/03/08 12:14:05;;;;;;;;;;;256.20;1177.60;;;;;;5036434;28;19921;-81
2022/03/08 12:16:31;;;;;;;;;;;256.30;1177.60;;;;;;5037102;28;19956;-82
2022/03/08 12:18:58;;;;;;;;;;;256.80;1152.00;;;;;;5036789;28;19948;-80
2022/03/08 12:21:24;;;;;;;;;;;282.10;1203.20;;;;;;5037155;28;19992;-78
2022/03/08 12:23:52;;;;;;;;;;;281.70;1177.60;;;;;;5036540;28;19952;-80
2022/03/08 12:26:21;;;;;;;;;;;256.70;1177.60;;;;;;5037030;28;19905;-78
2022/03/08 12:29:05;;;;;;;;;;;256.40;1177.60;;;;;;5036939;28;19905;-80
2022/03/08 12:31:31;;;;;;;;;;;231.30;1203.20;;;;;;5037019;28;19919;-82
2022/03/08 12:34:01;;;;;;;;;;;230.80;1331.20;;;;;;5036853;28;19917;-81
2022/03/08 12:36:27;;;;;;;;;;;230.50;1382.40;;;;;;5046367;28;19912;-80
2022/03/08 12:38:52;;;;;;;;;;;205.70;1408.00;;;;;;5045421;28;20373;-80
2022/03/08 12:41:23;;;;;;;;;;;205.70;1433.60;;;;;;5048273;28;19911;-81
2022/03/08 12:43:57;;;;;;;;;;;230.40;1433.60;;;;;;5056852;28;19959;-80
2022/03/08 12:46:22;;;;;;;;;;;230.50;1433.60;;;;;;5056788;28;20370;-83
2022/03/08 12:48:51;;;;;;;;;;;230.50;1408.00;;;;;;5056462;28;19919;-79
2022/03/08 12:51:16;;;;;;;;;;;230.40;1408.00;;;;;;5055997;28;19905;-82
2022/03/08 12:53:42;;;;;;;;;;;230.40;1408.00;;;;;;5057571;28;19923;-80
2022/03/08 12:56:11;;;;;;;;;;;230.40;1433.60;;;;;;5056110;28;19954;-80
2022/03/08 12:58:37;;;;;;;;;;;230.40;1408.00;;;;;;5041760;28;19909;-80
2022/03/08 13:01:04;;;;;;;;;;;230.40;1408.00;;;;;;5045235;28;19905;-83
2022/03/08 13:03:30;;;;;;;;;;;230.50;1382.40;;;;;;5047195;28;20472;-85
2022/03/08 13:05:57;;;;;;;;;;;230.50;1382.40;;;;;;5046461;28;19917;-82
2022/03/08 13:08:24;;;;;;;;;;;230.50;1356.80;;;;;;5044657;28;20396;-79
2022/03/08 13:10:57;;;;;;;;;;;230.60;1331.20;;;;;;5045292;28;19905;-87
2022/03/08 13:13:23;;;;;;;;;;;230.60;1331.20;;;;;;5040825;28;20374;-82
2022/03/08 13:15:49;;;;;;;;;;;230.70;1331.20;;;;;;5043267;28;20031;-87
2022/03/08 13:18:21;;;;;;;;;;;230.80;1356.80;;;;;;5045508;28;19963;-88
2022/03/08 13:20:48;;;;;;;;;;;230.70;1356.80;;;;;;5039680;28;19917;-86
2022/03/08 13:23:14;;;;;;;;;;;230.70;1382.40;;;;;;5042457;28;20019;-79
2022/03/08 13:25:41;;;;;;;;;;;230.40;1433.60;;;;;;5025600;28;19952;-79
2022/03/08 13:28:11;;;;;;;;;;;230.40;1459.20;;;;;;5022902;28;19940;-79
2022/03/08 13:30:37;;;;;;;;;;;205.50;1484.80;;;;;;5022536;28;19912;-79
2022/03/08 13:33:21;;;;;;;;;;;205.70;1484.80;;;;;;5023847;28;20367;-79
2022/03/08 13:35:59;;;;;;;;;;;205.50;1484.80;;;;;;5024809;28;20008;-82
2022/03/08 13:38:26;;;;;;;;;;;205.70;1459.20;;;;;;5025355;28;19905;-80
2022/03/08 13:40:52;;;;;;;;;;;230.40;1459.20;;;;;;5022601;28;19971;-80